Pagrindinis puslapis
METAR-TAF:

METAR-TAF

Oro uostai :

Porto Alegrė, Pietų Rio Grandė, Brazilija

platuma: 30-00S, ilguma: 051-11W, Aukštis: 3 m

Dabartinis oras

Ataskaita buvo paskelbta 26 minutes, ne 10:00 UTC
Vėjas 8 kt iš Rytų/Pietryčių
Temperatūra 20°C
Drėgmė 88%
Slėgis 1017 hPa
Matomumas 10 km arba daugiau
nėra debesų žemiau 1500 m ir nėra kamuolinių lietaus debesų

METAR: SBPA 121000Z 11008KT CAVOK 20/18 Q1017

Laikas: 08:26 (10:26 UTC)

Prognozė

Ataskaita buvo paskelbta 8 valandos ir 34 minutes, ne 01:52 UTC
Prognozė galioja nuo 12 metu 06 UTC su 13 metu 06 UTC
Vėjas 10 kt iš Rytų/Pietryčių
Matomumas 10 km arba daugiau
nėra debesų žemiau 1500 m ir nėra kamuolinių lietaus debesų
Tapsmas
nuo 12 metu 15 UTC su 12 metu 17 UTC
Vėjas 17 kt iš Rytų/Pietryčių
Tapsmas
nuo 13 metu 02 UTC su 13 metu 04 UTC
Vėjas 7 kt iš Rytų/Pietryčių

TAF: SBPA 120152Z 1206/1306 11010KT CAVOK TN17/1208Z TX28/1217Z BECMG 1215/1217 11017KT BECMG 1302/1304 11007KT RMK PDW

Orai ataskaitas ir orų prognozės (METAR, TAF).

turimą stotys yra geltonos ir raudonos taškus žemėlapyje.

Perkelti pele per norėdami pamatyti stoties vardą.

Tada spustelėkite, norėdami matyti oro stebėjimo ir prognozės.

Norėdami pakeisti žemėlapį: spustelėkite ant žalios mygtukų su juodo kryžiaus žemyn,; žalią mygtuką su brūkšneliu, jei norite nutolinti; arba žalių rodyklių gretimoms žemėlapius.


METAR-TAF: